Time;durP1;ratioP1;P1;durP2;ratioP2;P2;SDS_P1;SDS_P2;PMS_P1;PMS_P2;Temp;Humidity;BMP_temperature;BMP_pressure;BME280_temperature;BME280_humidity;BME280_pressure;Samples;Min_cycle;Max_cycle;Signal;HPM_P1;HPM_P2
2023/03/23 00:01:29;;;;;;;8.45;5.78;;;11.80;99.90;;;;;;5088634;28;20040;-73
2023/03/23 00:03:58;;;;;;;11.35;5.07;;;11.80;99.90;;;;;;5056236;28;20063;-74
2023/03/23 00:06:27;;;;;;;9.65;5.72;;;11.80;99.90;;;;;;5056140;28;20040;-74
2023/03/23 00:08:59;;;;;;;12.02;6.40;;;11.90;99.90;;;;;;5052143;28;20037;-73
2023/03/23 00:11:28;;;;;;;;;;;11.80;99.90;;;;;;5046211;28;20477;-74
2023/03/23 00:13:57;;;;;;;7.93;4.70;;;11.80;99.90;;;;;;5056115;28;19982;-73
2023/03/23 00:16:31;;;;;;;7.75;5.35;;;11.90;99.90;;;;;;5072836;28;20520;-74
2023/03/23 00:19:00;;;;;;;10.05;4.90;;;11.90;99.90;;;;;;5049364;28;20041;-74
2023/03/23 00:21:46;;;;;;;12.18;5.50;;;11.90;99.90;;;;;;5067469;28;20040;-74
2023/03/23 00:24:15;;;;;;;9.13;5.45;;;12.00;99.90;;;;;;5071247;28;20127;-74
2023/03/23 00:26:43;;;;;;;8.00;4.82;;;11.90;99.90;;;;;;5072179;28;20074;-74
2023/03/23 00:29:21;;;;;;;8.63;5.03;;;12.00;99.90;;;;;;5055002;28;20041;-74
2023/03/23 00:31:47;;;;;;;7.20;3.65;;;11.90;99.90;;;;;;5055766;28;20369;-73
2023/03/23 00:34:19;;;;;;;8.95;4.50;;;12.00;99.90;;;;;;5044661;28;20049;-73
2023/03/23 00:37:02;;;;;;;8.73;4.10;;;11.90;99.90;;;;;;5035942;28;20047;-73
2023/03/23 00:39:28;;;;;;;10.80;5.25;;;12.00;99.90;;;;;;5067510;28;20723;-73
2023/03/23 00:42:00;;;;;;;8.52;4.53;;;12.00;99.90;;;;;;5072191;28;20041;-73
2023/03/23 00:44:28;;;;;;;7.65;4.70;;;12.00;99.90;;;;;;5051147;28;20090;-74
2023/03/23 00:46:56;;;;;;;10.68;4.63;;;12.00;99.90;;;;;;5052117;28;20037;-73
2023/03/23 00:49:25;;;;;;;11.05;5.80;;;12.00;99.90;;;;;;5049876;28;20365;-74
2023/03/23 00:51:56;;;;;;;8.52;5.03;;;12.00;99.90;;;;;;5050216;28;20049;-74
2023/03/23 00:54:22;;;;;;;10.32;5.10;;;11.90;99.90;;;;;;5035567;28;20040;-74
2023/03/23 00:56:48;;;;;;;10.02;5.50;;;12.00;99.90;;;;;;5035106;28;20048;-74
2023/03/23 00:59:14;;;;;;;9.32;4.18;;;12.00;99.90;;;;;;5052346;28;20033;-73
2023/03/23 01:01:40;;;;;;;8.85;4.90;;;12.00;99.90;;;;;;5057282;28;20541;-74
2023/03/23 01:04:06;;;;;;;8.45;4.25;;;12.00;99.90;;;;;;5045798;28;20072;-74
2023/03/23 01:06:39;;;;;;;9.93;4.80;;;12.00;99.90;;;;;;5051825;28;20492;-73
2023/03/23 01:09:07;;;;;;;9.60;3.80;;;12.00;99.90;;;;;;5062535;28;20120;-73
2023/03/23 01:11:33;;;;;;;7.47;4.50;;;12.00;99.90;;;;;;5054985;28;20123;-73
2023/03/23 01:13:59;;;;;;;9.32;4.07;;;12.00;99.90;;;;;;5055124;28;20075;-73
2023/03/23 01:16:25;;;;;;;6.70;4.07;;;12.00;99.90;;;;;;5055124;28;20123;-74
2023/03/23 01:18:51;;;;;;;11.23;5.25;;;12.00;99.90;;;;;;5070809;28;20127;-74
2023/03/23 01:21:19;;;;;;;10.98;5.10;;;11.80;99.90;;;;;;5054907;28;20097;-73
2023/03/23 01:23:45;;;;;;;11.27;4.60;;;11.70;99.90;;;;;;5070691;28;20044;-74
2023/03/23 01:26:13;;;;;;;9.88;3.85;;;11.90;99.90;;;;;;5055049;28;20056;-74
2023/03/23 01:28:40;;;;;;;8.77;4.50;;;11.90;99.90;;;;;;5052002;28;20068;-74
2023/03/23 01:31:12;;;;;;;8.93;4.10;;;11.90;99.90;;;;;;5050117;28;20087;-74
2023/03/23 01:33:38;;;;;;;10.23;4.22;;;11.90;99.90;;;;;;5034495;28;20048;-73
2023/03/23 01:36:12;;;;;;;7.57;3.47;;;11.90;99.90;;;;;;5051577;28;20047;-74
2023/03/23 01:38:38;;;;;;;5.82;2.92;;;12.00;99.90;;;;;;5058785;28;20148;-73
2023/03/23 01:41:05;;;;;;;8.18;3.00;;;12.00;99.90;;;;;;5054770;28;20044;-74
2023/03/23 01:43:31;;;;;;;8.75;3.75;;;12.00;99.90;;;;;;5050660;28;20120;-74
2023/03/23 01:45:57;;;;;;;7.28;3.42;;;12.00;99.90;;;;;;5059720;28;20051;-73
2023/03/23 01:48:27;;;;;;;6.45;2.97;;;12.00;99.90;;;;;;5070400;28;20085;-74
2023/03/23 01:51:20;;;;;;;10.05;3.60;;;12.00;99.90;;;;;;5054377;28;20501;-73
2023/03/23 01:53:52;;;;;;;7.70;2.83;;;12.00;99.90;;;;;;5047269;28;20103;-74
2023/03/23 01:56:24;;;;;;;6.32;3.05;;;12.00;99.90;;;;;;5051517;28;20136;-73
2023/03/23 01:58:52;;;;;;;8.73;3.25;;;12.00;99.90;;;;;;5057804;28;20059;-74
2023/03/23 02:01:18;;;;;;;6.22;2.40;;;12.00;99.90;;;;;;5053828;28;20098;-73
2023/03/23 02:03:45;;;;;;;5.22;2.35;;;12.00;99.90;;;;;;5064088;28;20041;-73
2023/03/23 02:06:11;;;;;;;6.35;2.75;;;12.10;99.90;;;;;;5051587;28;20453;-74
2023/03/23 02:08:40;;;;;;;8.60;3.22;;;12.10;99.90;;;;;;5058164;28;20115;-73
2023/03/23 02:11:17;;;;;;;6.97;3.00;;;12.10;99.90;;;;;;5054363;28;20075;-73
2023/03/23 02:13:44;;;;;;;8.93;3.47;;;12.10;99.90;;;;;;5038638;28;20470;-73
2023/03/23 02:16:32;;;;;;;10.88;3.17;;;12.00;99.90;;;;;;5054956;28;20052;-73
2023/03/23 02:19:23;;;;;;;5.90;3.00;;;12.10;99.90;;;;;;5061938;28;20129;-73
2023/03/23 02:21:52;;;;;;;6.38;2.88;;;12.00;99.90;;;;;;5063976;28;20045;-72
2023/03/23 02:24:20;;;;;;;5.40;2.33;;;12.00;99.90;;;;;;5037744;28;20036;-73
2023/03/23 02:27:00;;;;;;;7.93;2.95;;;12.00;99.90;;;;;;5037465;28;20068;-73
2023/03/23 02:29:47;;;;;;;6.65;2.63;;;12.00;99.90;;;;;;5067256;28;20116;-73
2023/03/23 02:32:21;;;;;;;6.93;3.03;;;12.00;99.90;;;;;;5058101;28;20036;-73
2023/03/23 02:35:01;;;;;;;6.45;2.58;;;12.10;99.90;;;;;;5074867;28;20036;-73
2023/03/23 02:37:36;;;;;;;6.10;2.42;;;12.00;99.90;;;;;;5058128;28;20067;-73
2023/03/23 02:40:12;;;;;;;6.45;2.72;;;12.00;99.90;;;;;;5072544;28;20071;-72
2023/03/23 02:42:42;;;;;;;8.13;2.72;;;12.00;99.90;;;;;;5057286;28;20493;-73
2023/03/23 02:45:10;;;;;;;7.18;2.90;;;12.00;99.90;;;;;;5037662;28;20047;-73
2023/03/23 02:47:38;;;;;;;7.35;2.58;;;12.00;99.90;;;;;;5053893;28;20072;-73
2023/03/23 02:50:07;;;;;;;5.00;2.25;;;12.00;99.90;;;;;;5054113;28;20060;-73
2023/03/23 02:52:35;;;;;;;6.45;2.47;;;12.00;99.90;;;;;;5037522;28;20501;-73
2023/03/23 02:55:02;;;;;;;7.13;2.40;;;12.10;99.90;;;;;;5070595;28;20526;-73
2023/03/23 02:57:29;;;;;;;9.35;3.25;;;12.00;99.90;;;;;;5056477;28;20040;-73
2023/03/23 02:59:55;;;;;;;9.60;2.75;;;12.00;99.90;;;;;;5037470;28;20045;-73
2023/03/23 03:02:28;;;;;;;6.90;2.63;;;11.90;99.90;;;;;;5054168;28;20048;-73
2023/03/23 03:05:09;;;;;;;7.00;2.55;;;11.90;99.90;;;;;;5049430;28;20124;-73
2023/03/23 03:07:49;;;;;;;6.88;2.38;;;12.00;99.90;;;;;;5037689;28;20033;-73
2023/03/23 03:10:31;;;;;;;7.90;2.33;;;12.00;99.90;;;;;;5062717;28;20042;-73
2023/03/23 03:13:24;;;;;;;8.60;2.40;;;12.00;99.90;;;;;;5037169;28;20524;-74
2023/03/23 03:16:05;;;;;;;6.00;3.20;;;12.00;99.90;;;;;;5037287;28;20283;-73
2023/03/23 03:18:52;;;;;;;8.73;2.83;;;11.90;99.90;;;;;;5053257;28;20041;-73
2023/03/23 03:21:20;;;;;;;5.35;2.40;;;11.90;99.90;;;;;;5036668;28;20067;-73
2023/03/23 03:23:49;;;;;;;6.30;2.17;;;12.00;99.90;;;;;;5043213;28;20051;-73
2023/03/23 03:26:16;;;;;;;5.53;2.50;;;12.00;99.90;;;;;;5056911;28;20036;-73
2023/03/23 03:28:47;;;;;;;9.30;3.03;;;12.00;99.90;;;;;;5051761;28;20033;-73
2023/03/23 03:31:14;;;;;;;5.70;2.30;;;12.00;99.90;;;;;;5052948;28;20123;-73
2023/03/23 03:33:40;;;;;;;4.95;2.55;;;12.00;99.90;;;;;;5053404;28;20041;-73
2023/03/23 03:36:08;;;;;;;6.55;2.88;;;12.00;99.90;;;;;;5037072;28;20052;-73
2023/03/23 03:38:45;;;;;;;5.97;2.33;;;11.90;99.90;;;;;;5059865;28;20115;-73
2023/03/23 03:41:11;;;;;;;5.45;2.50;;;11.90;99.90;;;;;;5056624;28;20051;-73
2023/03/23 03:43:37;;;;;;;7.35;2.60;;;11.90;99.90;;;;;;5051055;28;20036;-73
2023/03/23 03:46:03;;;;;;;6.88;3.28;;;11.90;99.90;;;;;;5036687;28;20033;-73
2023/03/23 03:48:28;;;;;;;8.25;3.17;;;12.00;99.90;;;;;;5042516;28;20493;-73
2023/03/23 03:50:56;;;;;;;6.07;2.42;;;11.90;99.90;;;;;;5072952;28;20063;-73
2023/03/23 03:53:25;;;;;;;6.63;2.22;;;11.90;99.90;;;;;;5047171;28;20409;-73
2023/03/23 03:55:55;;;;;;;6.32;3.10;;;11.90;99.90;;;;;;5051709;28;20401;-73
2023/03/23 03:58:22;;;;;;;10.20;2.83;;;11.90;99.90;;;;;;5066128;28;20511;-73
2023/03/23 04:00:48;;;;;;;7.25;2.88;;;11.90;99.90;;;;;;5052925;28;20543;-73
2023/03/23 04:03:16;;;;;;;6.93;2.97;;;11.90;99.90;;;;;;5035752;28;20390;-73
2023/03/23 04:05:44;;;;;;;8.02;3.05;;;11.80;99.90;;;;;;5052838;28;20132;-73
2023/03/23 04:08:11;;;;;;;7.63;3.05;;;11.80;99.90;;;;;;5039062;28;20033;-73
2023/03/23 04:10:37;;;;;;;8.38;3.00;;;11.70;99.90;;;;;;5072668;28;20123;-73
2023/03/23 04:13:04;;;;;;;5.10;2.58;;;11.80;99.90;;;;;;5071046;28;20040;-73
2023/03/23 04:15:30;;;;;;;7.57;2.60;;;11.70;99.90;;;;;;5052672;28;20041;-74
2023/03/23 04:17:56;;;;;;;5.60;2.45;;;11.80;99.90;;;;;;5053177;28;20095;-73
2023/03/23 04:20:22;;;;;;;5.32;2.92;;;11.80;99.90;;;;;;5055871;28;20037;-73
2023/03/23 04:22:49;;;;;;;7.63;2.85;;;11.90;99.90;;;;;;5055889;28;20045;-73
2023/03/23 04:25:17;;;;;;;9.15;3.92;;;11.90;99.90;;;;;;5053281;28;20041;-73
2023/03/23 04:27:43;;;;;;;7.15;2.70;;;12.00;99.90;;;;;;5052326;28;20068;-73
2023/03/23 04:30:11;;;;;;;6.88;2.72;;;12.00;99.90;;;;;;5071166;28;20512;-73
2023/03/23 04:32:41;;;;;;;5.70;2.28;;;12.00;99.90;;;;;;5071385;28;20040;-73
2023/03/23 04:35:11;;;;;;;6.70;3.10;;;12.00;99.90;;;;;;5055785;28;20063;-73
2023/03/23 04:37:37;;;;;;;8.32;3.22;;;12.00;99.90;;;;;;5072220;28;20126;-73
2023/03/23 04:40:10;;;;;;;6.60;2.83;;;11.90;99.90;;;;;;5071383;28;20040;-73
2023/03/23 04:42:37;;;;;;;5.72;2.40;;;11.90;99.90;;;;;;5072314;28;20048;-72
2023/03/23 04:45:05;;;;;;;5.55;2.70;;;12.00;99.90;;;;;;5054444;28;20040;-72
2023/03/23 04:47:34;;;;;;;5.13;1.95;;;12.00;99.90;;;;;;5072154;28;20119;-72
2023/03/23 04:50:01;;;;;;;6.38;1.80;;;11.90;99.90;;;;;;5070550;28;20056;-71
2023/03/23 04:52:28;;;;;;;9.20;2.33;;;11.50;99.90;;;;;;5071878;28;20044;-72
2023/03/23 04:54:55;;;;;;;4.32;1.70;;;11.20;99.90;;;;;;5055382;28;20040;-73
2023/03/23 04:57:22;;;;;;;7.60;1.63;;;11.00;99.90;;;;;;5050138;28;20044;-73
2023/03/23 04:59:47;;;;;;;5.25;1.70;;;10.90;99.90;;;;;;5065020;28;20125;-73
2023/03/23 05:02:13;;;;;;;5.38;1.88;;;10.90;99.90;;;;;;5055312;28;20090;-73
2023/03/23 05:04:43;;;;;;;4.45;1.50;;;10.90;99.90;;;;;;5071870;28;20044;-74
2023/03/23 05:07:10;;;;;;;4.30;1.45;;;11.00;99.90;;;;;;5071948;28;20040;-74
2023/03/23 05:09:35;;;;;;;6.40;1.70;;;11.00;99.90;;;;;;5070642;28;20044;-73
2023/03/23 05:12:09;;;;;;;4.70;2.03;;;11.10;99.90;;;;;;5071846;28;20037;-73
2023/03/23 05:14:36;;;;;;;4.38;1.45;;;11.20;99.90;;;;;;5051060;28;20033;-73
2023/03/23 05:17:01;;;;;;;5.60;1.35;;;11.00;99.90;;;;;;5051788;28;20041;-73
2023/03/23 05:19:27;;;;;;;3.65;1.50;;;11.00;99.90;;;;;;5045971;28;20041;-73
2023/03/23 05:21:56;;;;;;;5.68;1.67;;;11.00;99.90;;;;;;5071746;28;20036;-73
2023/03/23 05:24:22;;;;;;;6.95;1.80;;;11.00;99.90;;;;;;5071583;28;20045;-73
2023/03/23 05:26:52;;;;;;;4.25;1.10;;;10.90;99.90;;;;;;5070823;28;20086;-73
2023/03/23 05:29:18;;;;;;;8.10;1.85;;;11.00;99.90;;;;;;5043603;28;20033;-73
2023/03/23 05:31:44;;;;;;;8.50;1.77;;;11.10;99.90;;;;;;5035099;28;20047;-73
2023/03/23 05:34:09;;;;;;;8.43;2.53;;;11.00;99.90;;;;;;5051565;28;20048;-73
2023/03/23 05:36:35;;;;;;;5.45;1.75;;;10.90;99.90;;;;;;5034967;28;20382;-73
2023/03/23 05:39:03;;;;;;;8.20;1.80;;;11.00;99.90;;;;;;5059060;28;20385;-73
2023/03/23 05:41:29;;;;;;;7.82;1.63;;;10.90;99.90;;;;;;5055056;28;20412;-73
2023/03/23 05:43:54;;;;;;;5.28;1.60;;;10.90;99.90;;;;;;5072706;28;20037;-73
2023/03/23 05:46:20;;;;;;;7.63;1.83;;;10.80;99.90;;;;;;5074887;28;20177;-73
2023/03/23 05:48:45;;;;;;;10.05;2.30;;;10.80;99.90;;;;;;5059738;28;20035;-73
2023/03/23 05:51:12;;;;;;;12.38;2.33;;;10.80;99.90;;;;;;5058706;28;20057;-73
2023/03/23 05:53:37;;;;;;;7.95;2.00;;;10.70;99.90;;;;;;5058909;28;20040;-73
2023/03/23 05:56:03;;;;;;;6.70;1.38;;;10.80;99.90;;;;;;5073645;28;20514;-73
2023/03/23 05:58:29;;;;;;;8.00;2.17;;;10.80;99.90;;;;;;5072597;28;20084;-73
2023/03/23 06:00:55;;;;;;;10.45;2.15;;;10.70;99.90;;;;;;5059532;28;20529;-73
2023/03/23 06:03:22;;;;;;;10.50;2.10;;;10.70;99.90;;;;;;5055073;28;20140;-73
2023/03/23 06:05:48;;;;;;;10.65;2.38;;;10.70;99.90;;;;;;5038765;28;20044;-73
2023/03/23 06:08:14;;;;;;;13.65;2.75;;;10.90;99.90;;;;;;5058452;28;20488;-73
2023/03/23 06:10:40;;;;;;;10.25;2.60;;;10.90;99.90;;;;;;5057509;28;20120;-74
2023/03/23 06:13:05;;;;;;;10.80;2.28;;;10.90;99.90;;;;;;5056090;28;20087;-73
2023/03/23 06:15:32;;;;;;;9.88;2.00;;;10.90;99.90;;;;;;5054979;28;20041;-73
2023/03/23 06:18:02;;;;;;;7.28;1.80;;;10.90;99.90;;;;;;5055786;28;20041;-73
2023/03/23 06:20:28;;;;;;;12.88;2.30;;;10.90;99.90;;;;;;5075176;28;20052;-73
2023/03/23 06:22:55;;;;;;;9.95;2.47;;;10.90;99.90;;;;;;5058133;28;20048;-73
2023/03/23 06:25:22;;;;;;;12.45;2.40;;;11.00;99.90;;;;;;5072054;28;20028;-73
2023/03/23 06:27:48;;;;;;;11.02;2.22;;;11.00;99.90;;;;;;5056802;28;20041;-73
2023/03/23 06:30:14;;;;;;;10.75;1.83;;;10.90;99.90;;;;;;5074666;28;20032;-73
2023/03/23 06:32:41;;;;;;;7.80;2.17;;;11.00;99.90;;;;;;5074877;28;20392;-73
2023/03/23 06:35:09;;;;;;;10.80;3.15;;;11.00;99.90;;;;;;5057005;28;20041;-73
2023/03/23 06:37:36;;;;;;;7.88;2.25;;;11.00;99.90;;;;;;5057885;28;20178;-73
2023/03/23 06:40:03;;;;;;;13.07;2.42;;;11.10;99.90;;;;;;5039800;28;20429;-73
2023/03/23 06:42:29;;;;;;;12.85;2.55;;;11.10;99.90;;;;;;5054657;28;20449;-73
2023/03/23 06:44:57;;;;;;;11.75;2.30;;;11.00;99.90;;;;;;5053807;28;20129;-73
2023/03/23 06:47:23;;;;;;;11.95;2.28;;;11.00;99.90;;;;;;5054695;28;20116;-73
2023/03/23 06:49:49;;;;;;;14.48;3.08;;;11.00;99.90;;;;;;5056069;28;20041;-73
2023/03/23 06:52:15;;;;;;;12.68;2.30;;;11.00;99.90;;;;;;5037770;28;20124;-73
2023/03/23 06:54:40;;;;;;;7.70;2.08;;;11.00;99.90;;;;;;5050769;28;20503;-73
2023/03/23 06:57:08;;;;;;;14.15;2.25;;;11.00;99.90;;;;;;5072764;28;20082;-73
2023/03/23 06:59:33;;;;;;;9.80;1.77;;;11.10;99.90;;;;;;5072932;28;20070;-74
2023/03/23 07:01:59;;;;;;;13.52;2.83;;;11.20;99.90;;;;;;5056599;28;20036;-73
2023/03/23 07:04:24;;;;;;;11.65;2.30;;;11.20;99.90;;;;;;5057235;28;20390;-73
2023/03/23 07:06:50;;;;;;;16.65;2.63;;;11.20;99.90;;;;;;5074009;28;20123;-73
2023/03/23 07:09:16;;;;;;;15.75;3.30;;;11.10;99.90;;;;;;5070716;28;20094;-73
2023/03/23 07:11:41;;;;;;;16.77;2.80;;;11.10;99.90;;;;;;5053303;28;20087;-73
2023/03/23 07:14:07;;;;;;;16.02;3.17;;;11.30;99.90;;;;;;5037300;28;20067;-73
2023/03/23 07:16:33;;;;;;;15.70;2.70;;;11.20;99.90;;;;;;5053854;28;20379;-73
2023/03/23 07:18:59;;;;;;;17.20;3.97;;;11.20;99.90;;;;;;5037459;28;20040;-73
2023/03/23 07:21:25;;;;;;;18.40;2.90;;;11.20;99.90;;;;;;5069149;28;20463;-73
2023/03/23 07:23:51;;;;;;;10.32;2.83;;;11.10;99.90;;;;;;5066639;28;20489;-73
2023/03/23 07:26:17;;;;;;;15.38;2.90;;;11.10;99.90;;;;;;5055880;28;20044;-73
2023/03/23 07:28:43;;;;;;;17.80;2.63;;;11.20;99.90;;;;;;5044978;28;20433;-73
2023/03/23 07:31:09;;;;;;;22.85;3.88;;;11.20;99.90;;;;;;5045115;28;20037;-74
2023/03/23 07:33:35;;;;;;;16.23;3.35;;;11.10;99.90;;;;;;5059699;28;20477;-73
2023/03/23 07:36:02;;;;;;;18.00;3.13;;;11.40;99.90;;;;;;5045828;28;20040;-74
2023/03/23 07:38:29;;;;;;;16.15;3.00;;;11.30;99.90;;;;;;5064378;28;20049;-74
2023/03/23 07:40:56;;;;;;;19.77;3.35;;;11.20;99.90;;;;;;5047852;28;20048;-73
2023/03/23 07:43:22;;;;;;;15.80;3.22;;;11.30;99.90;;;;;;5047835;28;20634;-73
2023/03/23 07:45:48;;;;;;;18.70;3.17;;;11.30;99.90;;;;;;5049086;28;20043;-73
2023/03/23 07:48:13;;;;;;;14.68;2.55;;;11.40;99.90;;;;;;5053004;28;20480;-73
2023/03/23 07:50:40;;;;;;;8.23;2.25;;;11.30;99.90;;;;;;5035818;28;20501;-74
2023/03/23 07:53:06;;;;;;;16.67;3.10;;;11.40;99.90;;;;;;5087078;28;20139;-73
2023/03/23 07:55:32;;;;;;;15.57;2.83;;;11.40;99.90;;;;;;5072987;28;20120;-73
2023/03/23 07:57:57;;;;;;;19.75;4.15;;;11.40;99.90;;;;;;5068947;28;20106;-74
2023/03/23 08:00:24;;;;;;;16.38;3.53;;;11.50;99.90;;;;;;5036998;28;20055;-73
2023/03/23 08:02:57;;;;;;;17.25;2.80;;;11.50;99.90;;;;;;5068518;28;20051;-74
2023/03/23 08:05:26;;;;;;;12.30;2.38;;;11.60;99.90;;;;;;5049426;28;20443;-73
2023/03/23 08:07:54;;;;;;;8.25;2.30;;;11.60;99.90;;;;;;5056063;28;20039;-73
2023/03/23 08:10:21;;;;;;;13.43;2.38;;;11.60;99.90;;;;;;5066947;28;20084;-73
2023/03/23 08:12:51;;;;;;;11.10;2.58;;;11.80;99.90;;;;;;5055531;28;20037;-74
2023/03/23 08:15:18;;;;;;;16.70;2.90;;;11.80;99.90;;;;;;5054412;28;20524;-73
2023/03/23 08:17:44;;;;;;;16.45;3.00;;;11.60;99.90;;;;;;5068943;28;20041;-73
2023/03/23 08:20:15;;;;;;;13.00;3.28;;;11.60;99.90;;;;;;5060885;28;20431;-73
2023/03/23 08:22:44;;;;;;;19.67;3.53;;;11.60;99.90;;;;;;5057945;28;20076;-73
2023/03/23 08:25:13;;;;;;;13.07;2.55;;;11.60;99.90;;;;;;5051151;28;20033;-73
2023/03/23 08:27:43;;;;;;;21.10;3.80;;;11.60;99.90;;;;;;5048971;28;20048;-73
2023/03/23 08:30:13;;;;;;;22.70;3.72;;;11.60;99.90;;;;;;5045899;28;20033;-73
2023/03/23 08:32:40;;;;;;;9.43;1.95;;;11.60;99.90;;;;;;5050900;28;20071;-73
2023/03/23 08:35:08;;;;;;;19.08;3.97;;;11.80;99.90;;;;;;5035147;28;20033;-73
2023/03/23 08:37:34;;;;;;;13.20;2.92;;;11.70;99.90;;;;;;5049388;28;20171;-73
2023/03/23 08:40:00;;;;;;;16.60;2.97;;;11.90;99.90;;;;;;5037697;28;20120;-73
2023/03/23 08:42:26;;;;;;;18.00;3.38;;;11.90;99.90;;;;;;5069405;28;20041;-73
2023/03/23 08:44:52;;;;;;;20.23;3.78;;;11.70;99.90;;;;;;5045818;28;20043;-73
2023/03/23 08:47:18;;;;;;;20.17;3.42;;;11.60;99.90;;;;;;5052192;28;20036;-73
2023/03/23 08:49:45;;;;;;;14.32;2.40;;;11.70;99.90;;;;;;5050968;28;20527;-73
2023/03/23 08:52:11;;;;;;;18.67;3.25;;;11.70;99.90;;;;;;5034937;28;20041;-74
2023/03/23 08:54:37;;;;;;;22.30;4.00;;;11.80;99.90;;;;;;5051300;28;20423;-73
2023/03/23 08:57:03;;;;;;;19.45;3.33;;;11.80;99.90;;;;;;5051792;28;20097;-73
2023/03/23 08:59:29;;;;;;;17.13;4.72;;;11.80;99.90;;;;;;5057069;28;20049;-73
2023/03/23 09:01:54;;;;;;;18.17;3.50;;;12.10;99.90;;;;;;5071676;28;20419;-73
2023/03/23 09:04:20;;;;;;;21.65;3.95;;;12.10;99.90;;;;;;5054631;28;20040;-73
2023/03/23 09:06:46;;;;;;;21.33;4.15;;;12.10;99.90;;;;;;5071561;28;20638;-73
2023/03/23 09:09:12;;;;;;;25.45;3.45;;;11.80;99.90;;;;;;5055297;28;20086;-74
2023/03/23 09:11:38;;;;;;;24.20;3.90;;;11.80;99.90;;;;;;5036352;28;20033;-74
2023/03/23 09:14:05;;;;;;;7.93;2.35;;;11.90;99.90;;;;;;5048500;28;20140;-73
2023/03/23 09:16:32;;;;;;;18.67;3.15;;;11.90;99.90;;;;;;5049387;28;20056;-73
2023/03/23 09:18:58;;;;;;;14.40;3.30;;;12.00;99.90;;;;;;5050107;28;20052;-73
2023/03/23 09:21:25;;;;;;;17.90;3.72;;;12.10;99.90;;;;;;5059832;28;20040;-73
2023/03/23 09:23:51;;;;;;;17.83;4.03;;;12.00;99.90;;;;;;5054456;28;20044;-73
2023/03/23 09:26:17;;;;;;;9.45;2.45;;;12.10;99.90;;;;;;5051012;28;20067;-73
2023/03/23 09:28:44;;;;;;;15.68;3.17;;;12.10;99.90;;;;;;5050895;28;20044;-73
2023/03/23 09:31:11;;;;;;;13.90;3.13;;;12.00;99.90;;;;;;5048642;28;20037;-73
2023/03/23 09:33:37;;;;;;;18.92;4.13;;;12.00;99.90;;;;;;5051150;28;20489;-73
2023/03/23 09:36:04;;;;;;;19.10;3.30;;;12.00;99.90;;;;;;5055574;28;20048;-73
2023/03/23 09:38:34;;;;;;;18.88;3.50;;;11.90;99.90;;;;;;5069480;28;20037;-73
2023/03/23 09:41:17;;;;;;;14.73;3.03;;;11.90;99.90;;;;;;5051423;28;20036;-73
2023/03/23 09:43:43;;;;;;;22.13;4.40;;;11.80;99.90;;;;;;5052789;28;20045;-73
2023/03/23 09:46:33;;;;;;;21.30;4.50;;;11.90;99.90;;;;;;5054425;28;20089;-73
2023/03/23 09:49:02;;;;;;;15.38;3.15;;;11.80;99.90;;;;;;5071236;28;20051;-73
2023/03/23 09:51:45;;;;;;;18.98;3.53;;;11.90;99.90;;;;;;5061589;28;20080;-73
2023/03/23 09:54:36;;;;;;;18.90;3.88;;;11.90;99.90;;;;;;5051160;28;20370;-73
2023/03/23 09:57:02;;;;;;;23.67;4.32;;;12.00;99.90;;;;;;5050815;28;20523;-73
2023/03/23 09:59:31;;;;;;;21.45;3.45;;;12.00;99.90;;;;;;5062326;28;20471;-73
2023/03/23 10:02:28;;;;;;;17.38;3.38;;;11.80;99.90;;;;;;5058151;28;20052;-73
2023/03/23 10:05:14;;;;;;;21.20;3.60;;;11.80;99.90;;;;;;5073461;28;20981;-73
2023/03/23 10:07:40;;;;;;;18.23;3.28;;;11.70;99.90;;;;;;5050317;28;20036;-73
2023/03/23 10:10:13;;;;;;;14.73;2.80;;;11.80;99.90;;;;;;5042862;28;20033;-73
2023/03/23 10:13:04;;;;;;;17.48;3.25;;;11.90;99.90;;;;;;5033773;28;20072;-73
2023/03/23 10:15:35;;;;;;;17.67;3.90;;;12.00;99.90;;;;;;5063206;28;20041;-73
2023/03/23 10:18:07;;;;;;;16.58;2.90;;;12.00;99.90;;;;;;5037734;28;20055;-73
2023/03/23 10:20:50;;;;;;;9.40;1.90;;;12.00;99.90;;;;;;5060341;28;20044;-72
2023/03/23 10:23:19;;;;;;;19.85;3.05;;;12.20;99.90;;;;;;5049917;28;20489;-73
2023/03/23 10:25:51;;;;;;;17.92;3.42;;;12.30;99.90;;;;;;5034573;28;20099;-73
2023/03/23 10:28:21;;;;;;;;;;;12.40;99.90;;;;;;5050871;28;20037;-73
2023/03/23 10:30:56;;;;;;;12.68;2.70;;;12.50;99.90;;;;;;5076908;28;19924;-73
2023/03/23 10:33:44;;;;;;;10.63;1.92;;;12.50;99.90;;;;;;5068266;28;20036;-73
2023/03/23 10:36:28;;;;;;;13.27;2.40;;;12.60;99.90;;;;;;5036866;28;20045;-73
2023/03/23 10:39:14;;;;;;;13.35;3.10;;;12.40;99.90;;;;;;5053052;28;20033;-73
2023/03/23 10:41:40;;;;;;;14.27;2.92;;;12.30;99.90;;;;;;5053043;28;20090;-72
2023/03/23 10:44:18;;;;;;;17.85;3.58;;;12.20;99.90;;;;;;5052702;28;20037;-72
2023/03/23 10:46:54;;;;;;;18.73;3.25;;;12.30;99.90;;;;;;5047048;28;20051;-73
2023/03/23 10:49:24;;;;;;;18.25;3.45;;;12.50;99.90;;;;;;5042990;28;20037;-73
2023/03/23 10:52:27;;;;;;;16.40;3.28;;;12.60;99.90;;;;;;5041864;28;20048;-73
2023/03/23 10:55:02;;;;;;;17.60;3.25;;;12.70;99.90;;;;;;5053284;28;20045;-73
2023/03/23 10:57:29;;;;;;;13.68;2.65;;;12.70;99.90;;;;;;5037311;28;20100;-73
2023/03/23 11:00:18;;;;;;;13.80;2.45;;;13.00;99.90;;;;;;5065971;28;20036;-73
2023/03/23 11:03:02;;;;;;;18.13;3.15;;;13.00;99.90;;;;;;5060153;28;20041;-72
2023/03/23 11:05:44;;;;;;;12.40;1.98;;;13.20;99.90;;;;;;5053354;28;20047;-72
2023/03/23 11:08:21;;;;;;;14.25;2.60;;;13.60;99.90;;;;;;5045703;28;20029;-73
2023/03/23 11:10:49;;;;;;;12.30;2.17;;;13.60;99.90;;;;;;5044108;28;20036;-72
2023/03/23 11:13:17;;;;;;;11.48;2.45;;;13.80;99.90;;;;;;5046457;28;20055;-72
2023/03/23 11:15:46;;;;;;;9.15;1.65;;;13.70;99.90;;;;;;5067016;28;20037;-72
2023/03/23 11:18:20;;;;;;;8.00;1.60;;;13.90;99.90;;;;;;5045663;28;20051;-72
2023/03/23 11:20:54;;;;;;;13.57;3.15;;;14.00;99.90;;;;;;5064020;28;20059;-72
2023/03/23 11:23:30;;;;;;;12.20;2.65;;;14.00;99.90;;;;;;5072397;28;20121;-73
2023/03/23 11:26:28;;;;;;;12.98;2.25;;;13.90;99.90;;;;;;5049303;28;20076;-72
2023/03/23 11:28:56;;;;;;;11.85;2.17;;;13.80;99.90;;;;;;5053332;28;20071;-72
2023/03/23 11:32:06;;;;;;;13.93;2.47;;;13.80;99.90;;;;;;5050006;28;20554;-72
2023/03/23 11:34:45;;;;;;;9.50;2.00;;;13.70;99.90;;;;;;5062338;28;20052;-72
2023/03/23 11:37:32;;;;;;;16.83;2.80;;;13.70;99.90;;;;;;5049638;28;20064;-72
2023/03/23 11:40:18;;;;;;;15.13;3.05;;;13.60;99.90;;;;;;5045045;28;20064;-72
2023/03/23 11:42:55;;;;;;;10.70;1.90;;;13.40;99.90;;;;;;5063884;28;20565;-72
2023/03/23 11:45:33;;;;;;;11.82;2.30;;;13.40;99.90;;;;;;5051969;28;20041;-72
2023/03/23 11:48:24;;;;;;;9.45;1.63;;;13.40;99.90;;;;;;5044290;28;20047;-72
2023/03/23 11:50:55;;;;;;;12.85;2.50;;;13.60;99.90;;;;;;5036776;28;20076;-72
2023/03/23 11:53:42;;;;;;;11.45;1.83;;;13.60;99.90;;;;;;5053645;28;20089;-72
2023/03/23 11:56:32;;;;;;;9.05;2.13;;;13.40;99.90;;;;;;5053350;28;20048;-72
2023/03/23 11:58:59;;;;;;;12.35;2.53;;;13.50;99.90;;;;;;5077465;28;20079;-72
2023/03/23 12:01:55;;;;;;;6.60;1.65;;;13.70;99.90;;;;;;5055645;28;20559;-72
2023/03/23 12:04:27;;;;;;;10.80;1.70;;;13.90;99.90;;;;;;5064428;28;20044;-72
2023/03/23 12:07:30;;;;;;;16.45;2.30;;;13.80;99.90;;;;;;5053289;28;20072;-72
2023/03/23 12:10:10;;;;;;;10.57;2.10;;;14.00;99.90;;;;;;5075858;28;20040;-71
2023/03/23 12:12:54;;;;;;;8.75;1.88;;;14.00;99.90;;;;;;5066583;28;20068;-72
2023/03/23 12:15:40;;;;;;;10.40;2.58;;;14.30;99.90;;;;;;5049703;28;20040;-72
2023/03/23 12:18:25;;;;;;;12.52;1.85;;;14.40;99.90;;;;;;5067786;28;20048;-72
2023/03/23 12:21:07;;;;;;;8.10;1.92;;;14.50;99.90;;;;;;5050911;28;20067;-72
2023/03/23 12:23:59;;;;;;;9.27;1.63;;;14.50;99.90;;;;;;5054390;28;20129;-72
2023/03/23 12:26:57;;;;;;;11.32;1.77;;;14.50;99.90;;;;;;5055603;28;20055;-72
2023/03/23 12:29:48;;;;;;;11.27;3.63;;;14.50;99.90;;;;;;5045929;28;20052;-72
2023/03/23 12:32:40;;;;;;;11.10;2.03;;;14.60;99.90;;;;;;5045688;28;20112;-72
2023/03/23 12:35:18;;;;;;;8.98;1.60;;;14.60;99.90;;;;;;5083562;28;20098;-72
2023/03/23 12:38:02;;;;;;;9.07;2.08;;;14.70;99.90;;;;;;5051319;28;20920;-72
2023/03/23 12:41:07;;;;;;;9.95;1.70;;;14.50;99.90;;;;;;5051797;28;20045;-72
2023/03/23 12:43:54;;;;;;;11.32;2.55;;;14.40;99.90;;;;;;5048049;28;20041;-72
2023/03/23 12:46:44;;;;;;;11.10;1.90;;;14.40;99.90;;;;;;5071121;28;20037;-72
2023/03/23 12:49:24;;;;;;;8.10;1.63;;;14.30;99.90;;;;;;5054720;28;20049;-72
2023/03/23 12:52:19;;;;;;;10.10;2.00;;;14.30;99.90;;;;;;5068000;28;20060;-72
2023/03/23 12:54:51;;;;;;;8.30;1.73;;;14.30;99.90;;;;;;5053432;28;20041;-71
2023/03/23 12:57:45;;;;;;;6.80;1.45;;;14.20;99.90;;;;;;5071975;28;20093;-72
2023/03/23 13:00:25;;;;;;;6.20;1.30;;;14.20;99.90;;;;;;5055179;28;20542;-72
2023/03/23 13:03:20;;;;;;;9.63;2.25;;;14.10;99.90;;;;;;5054931;28;20068;-72
2023/03/23 13:06:00;;;;;;;9.25;2.20;;;14.00;99.90;;;;;;5054674;28;20036;-72